Allingtown, Connecticut
Current Conditions -  °F | °C
As of 2:53 AM on Saturday 29 Nov 2014 (Local Time) from KHVN Reporting Station
Clear Clear  
Wind Chill: 25°   Ceiling: Unl
Heat Index: 25°   Visibility: 10mi
Dew Point: 14°   Wind: 3mph
Humidity: 63%   Direction: 340°NNW
Pressure: 30.3"   Gusts: NA
Location:  41.2716°N, 72.9666°W
Report Text: KHVN 290753Z AUTO 34003KT 10SM CLR M04/M10 A3030 RMK AO2 SLP260 T10391100
Loading
Personal Weather Stations






























Interactive Weather Map New forecast layout! Learn more

10-Day Weather Forecast

Advertisements
Track Severe Weather on mobile